createdAt,value
2023-05-25T00:02:15.625Z,11.70
2023-05-25T00:04:43.235Z,12.63
2023-05-25T00:07:10.920Z,14.18
2023-05-25T00:09:38.621Z,13.68
2023-05-25T00:12:06.489Z,13.68
2023-05-25T00:14:34.023Z,11.75
2023-05-25T00:17:04.546Z,11.77
2023-05-25T00:19:35.094Z,13.50
2023-05-25T00:22:03.196Z,11.73
2023-05-25T00:24:31.217Z,10.02
2023-05-25T00:26:58.944Z,10.05
2023-05-25T00:29:26.592Z,11.55
2023-05-25T00:31:54.259Z,12.00
2023-05-25T00:34:22.642Z,13.93
2023-05-25T00:36:50.381Z,13.52
2023-05-25T00:39:21.625Z,16.35
2023-05-25T00:41:50.231Z,16.42
2023-05-25T00:44:21.859Z,16.73
2023-05-25T00:46:52.585Z,14.68
2023-05-25T00:49:23.231Z,14.93
2023-05-25T00:51:53.070Z,10.38
2023-05-25T00:54:20.632Z,10.60
2023-05-25T00:56:53.395Z,16.60
2023-05-25T00:59:33.421Z,12.70
2023-05-25T01:02:09.578Z,14.98
2023-05-25T01:04:59.961Z,13.57
2023-05-25T01:07:31.533Z,15.63
2023-05-25T01:10:02.391Z,12.93
2023-05-25T01:12:30.859Z,14.93
2023-05-25T01:15:00.102Z,15.45
2023-05-25T01:17:29.214Z,13.05
2023-05-25T01:20:09.505Z,12.10
2023-05-25T01:22:45.578Z,14.57
2023-05-25T01:25:21.929Z,15.55
2023-05-25T01:27:59.925Z,13.85
2023-05-25T01:30:30.618Z,11.48
2023-05-25T01:33:01.152Z,18.30
2023-05-25T01:35:30.284Z,13.55
2023-05-25T01:37:58.887Z,16.08
2023-05-25T01:40:27.526Z,14.82
2023-05-25T01:42:54.994Z,11.80
2023-05-25T01:45:22.774Z,19.60
2023-05-25T01:48:07.235Z,14.23
2023-05-25T01:50:54.542Z,11.30
2023-05-25T01:53:42.829Z,15.52
2023-05-25T01:56:13.680Z,13.18
2023-05-25T01:58:46.931Z,12.70
2023-05-25T02:01:17.325Z,10.57
2023-05-25T02:03:51.649Z,11.43
2023-05-25T02:06:19.521Z,14.80
2023-05-25T02:08:47.011Z,13.00
2023-05-25T02:11:14.938Z,17.38
2023-05-25T02:13:42.567Z,15.38
2023-05-25T02:16:10.244Z,14.82
2023-05-25T02:18:37.851Z,11.90
2023-05-25T02:21:05.487Z,16.58
2023-05-25T02:23:32.933Z,20.55
2023-05-25T02:26:00.609Z,11.63
2023-05-25T02:28:28.816Z,11.10
2023-05-25T02:30:56.716Z,16.00
2023-05-25T02:33:24.191Z,15.45
2023-05-25T02:35:51.755Z,16.70
2023-05-25T02:38:19.237Z,22.15
2023-05-25T02:40:46.862Z,15.45
2023-05-25T02:43:14.493Z,11.02
2023-05-25T02:45:42.376Z,14.40
2023-05-25T02:48:10.005Z,16.60
2023-05-25T02:50:37.484Z,14.07
2023-05-25T02:53:08.314Z,16.77
2023-05-25T02:55:35.807Z,14.27
2023-05-25T02:58:03.714Z,16.90
2023-05-25T03:01:00.430Z,11.75
2023-05-25T03:03:28.821Z,17.95
2023-05-25T03:05:59.773Z,15.77
2023-05-25T03:08:27.374Z,13.50
2023-05-25T03:10:55.056Z,12.43
2023-05-25T03:13:22.562Z,13.32
2023-05-25T03:15:50.155Z,16.52
2023-05-25T03:18:17.904Z,15.18
2023-05-25T03:20:45.925Z,15.48
2023-05-25T03:23:14.102Z,12.45
2023-05-25T03:25:41.727Z,17.45
2023-05-25T03:28:09.416Z,17.10
2023-05-25T03:30:36.923Z,12.88
2023-05-25T03:33:04.658Z,16.25
2023-05-25T03:35:36.999Z,18.05
2023-05-25T03:38:04.549Z,14.20
2023-05-25T03:40:32.039Z,16.13
2023-05-25T03:42:59.856Z,11.52
2023-05-25T03:45:27.605Z,16.15
2023-05-25T03:47:55.257Z,13.13
2023-05-25T03:50:22.943Z,16.95
2023-05-25T03:52:50.821Z,15.93
2023-05-25T03:55:18.368Z,13.65
2023-05-25T03:57:46.114Z,19.27
2023-05-25T04:00:14.410Z,14.95
2023-05-25T04:02:43.400Z,15.07
2023-05-25T04:05:10.949Z,17.55
2023-05-25T04:07:38.711Z,15.93
2023-05-25T04:10:07.333Z,14.60
2023-05-25T04:12:34.976Z,18.88
2023-05-25T04:15:04.043Z,16.80
2023-05-25T04:17:32.235Z,19.00
2023-05-25T04:19:59.701Z,21.10
2023-05-25T04:22:27.242Z,15.98
2023-05-25T04:24:55.190Z,18.98
2023-05-25T04:27:22.972Z,16.38
2023-05-25T04:29:50.783Z,15.43
2023-05-25T04:32:37.488Z,13.40
2023-05-25T04:35:23.614Z,18.92
2023-05-25T04:37:51.764Z,14.60
2023-05-25T04:40:21.478Z,18.13
2023-05-25T04:42:49.413Z,16.23
2023-05-25T04:45:17.648Z,17.50
2023-05-25T04:47:45.999Z,16.35
2023-05-25T04:50:13.733Z,19.42
2023-05-25T04:52:41.256Z,18.50
2023-05-25T04:55:10.750Z,15.82
2023-05-25T04:57:41.241Z,14.55
2023-05-25T05:00:10.983Z,16.73
2023-05-25T05:02:39.957Z,15.07
2023-05-25T05:05:08.414Z,18.88
2023-05-25T05:07:36.130Z,17.52
2023-05-25T05:10:04.644Z,10.77
2023-05-25T05:12:33.603Z,14.57
2023-05-25T05:15:02.863Z,15.93
2023-05-25T05:17:31.247Z,13.32
2023-05-25T05:19:59.333Z,16.08
2023-05-25T05:22:27.305Z,19.05
2023-05-25T05:24:54.847Z,14.52
2023-05-25T05:27:27.017Z,14.07
2023-05-25T05:29:59.892Z,14.30
2023-05-25T05:32:27.591Z,18.40
2023-05-25T05:34:56.381Z,17.52
2023-05-25T05:37:39.393Z,16.05
2023-05-25T05:40:07.725Z,18.33
2023-05-25T05:42:36.378Z,17.38
2023-05-25T05:45:04.215Z,15.63
2023-05-25T05:47:31.904Z,14.00
2023-05-25T05:49:59.837Z,11.82
2023-05-25T05:52:29.696Z,14.57
2023-05-25T05:54:57.210Z,15.20
2023-05-25T05:57:24.727Z,15.07
2023-05-25T05:59:52.315Z,15.45
2023-05-25T06:02:20.394Z,13.00
2023-05-25T06:04:48.066Z,13.50
2023-05-25T06:07:15.736Z,15.32
2023-05-25T06:09:43.227Z,13.98
2023-05-25T06:12:10.983Z,18.20
2023-05-25T06:14:38.522Z,17.00
2023-05-25T06:17:07.023Z,16.95
2023-05-25T06:19:34.894Z,17.17
2023-05-25T06:22:03.955Z,21.27
2023-05-25T06:24:31.645Z,17.05
2023-05-25T06:26:59.127Z,18.17
2023-05-25T06:29:26.740Z,21.52
2023-05-25T06:31:54.875Z,17.17
2023-05-25T06:34:22.474Z,20.48
2023-05-25T06:36:49.948Z,15.88
2023-05-25T06:39:18.745Z,15.27
2023-05-25T06:41:46.304Z,18.88
2023-05-25T06:44:25.915Z,22.67
2023-05-25T06:46:53.504Z,21.40
2023-05-25T06:49:21.766Z,20.73
2023-05-25T06:51:51.242Z,15.93
2023-05-25T06:54:19.679Z,20.48
2023-05-25T06:56:47.305Z,26.15
2023-05-25T06:59:15.149Z,22.52
2023-05-25T07:01:43.392Z,20.65
2023-05-25T07:04:11.648Z,23.52
2023-05-25T07:06:39.217Z,17.52
2023-05-25T07:09:08.192Z,23.02
2023-05-25T07:11:35.817Z,18.10
2023-05-25T07:14:03.509Z,19.15
2023-05-25T07:16:32.080Z,19.65
2023-05-25T07:19:00.416Z,16.65
2023-05-25T07:21:37.698Z,20.75
2023-05-25T07:24:07.890Z,25.02
2023-05-25T07:26:36.676Z,19.85
2023-05-25T07:29:04.795Z,19.08
2023-05-25T07:31:32.244Z,22.40
2023-05-25T07:33:59.850Z,22.65
2023-05-25T07:36:27.340Z,21.90
2023-05-25T07:38:54.918Z,16.83
2023-05-25T07:41:22.998Z,18.45
2023-05-25T07:43:52.410Z,21.10
2023-05-25T07:46:25.250Z,18.77
2023-05-25T07:48:54.737Z,22.73
2023-05-25T07:51:23.514Z,21.77
2023-05-25T07:53:52.508Z,20.60
2023-05-25T07:56:20.265Z,20.38
2023-05-25T07:58:47.809Z,21.15
2023-05-25T08:01:16.325Z,15.45
2023-05-25T08:03:49.568Z,20.88
2023-05-25T08:06:18.179Z,20.60
2023-05-25T08:08:45.782Z,19.77
2023-05-25T08:11:13.555Z,23.25
2023-05-25T08:13:41.060Z,22.20
2023-05-25T08:16:09.244Z,20.88
2023-05-25T08:18:36.701Z,22.27
2023-05-25T08:21:04.413Z,24.40
2023-05-25T08:23:31.979Z,18.92
2023-05-25T08:26:01.151Z,17.52
2023-05-25T08:28:28.894Z,20.77
2023-05-25T08:30:58.764Z,19.88
2023-05-25T08:33:26.389Z,18.92
2023-05-25T08:35:53.982Z,24.98
2023-05-25T08:38:25.254Z,22.52
2023-05-25T08:41:04.451Z,21.13
2023-05-25T08:43:33.176Z,22.15
2023-05-25T08:46:06.342Z,14.50
2023-05-25T08:48:41.642Z,23.90
2023-05-25T08:51:13.567Z,19.38
2023-05-25T08:53:43.582Z,20.00
2023-05-25T08:56:18.526Z,24.42
2023-05-25T08:58:53.988Z,22.67
2023-05-25T09:01:27.621Z,26.58
2023-05-25T09:03:57.349Z,23.02
2023-05-25T09:06:27.190Z,18.48
2023-05-25T09:08:55.184Z,21.38
2023-05-25T09:11:36.114Z,21.50
2023-05-25T09:14:08.232Z,23.88
2023-05-25T09:16:37.791Z,21.75
2023-05-25T09:19:05.491Z,24.50
2023-05-25T09:21:32.974Z,22.25
2023-05-25T09:24:00.816Z,22.48
2023-05-25T09:26:28.646Z,18.48
2023-05-25T09:28:56.402Z,24.15
2023-05-25T09:31:25.171Z,22.55
2023-05-25T09:34:00.088Z,22.25
2023-05-25T09:36:28.340Z,23.55
2023-05-25T09:38:56.516Z,22.92
2023-05-25T09:41:27.753Z,20.02
2023-05-25T09:44:09.658Z,17.48
2023-05-25T09:46:39.728Z,23.02
2023-05-25T09:49:10.775Z,18.95
2023-05-25T09:51:38.819Z,23.60
2023-05-25T09:54:11.375Z,22.98
2023-05-25T09:56:38.972Z,16.25
2023-05-25T09:59:06.701Z,15.98
2023-05-25T10:01:35.222Z,22.85
2023-05-25T10:04:04.716Z,16.65
2023-05-25T10:06:33.918Z,13.48
2023-05-25T10:09:02.202Z,18.00
2023-05-25T10:11:29.749Z,18.90
2023-05-25T10:14:03.896Z,14.70
2023-05-25T10:16:34.563Z,17.98
2023-05-25T10:19:08.361Z,18.25
2023-05-25T10:21:38.125Z,13.82
2023-05-25T10:24:35.021Z,17.95
2023-05-25T10:27:14.515Z,13.40
2023-05-25T10:29:49.906Z,11.02
2023-05-25T10:32:19.044Z,12.98
2023-05-25T10:34:46.983Z,11.50
2023-05-25T10:37:16.243Z,16.55
2023-05-25T10:39:44.594Z,15.15
2023-05-25T10:42:13.394Z,14.13
2023-05-25T10:44:44.179Z,14.38
2023-05-25T10:47:12.554Z,11.07
2023-05-25T10:49:58.154Z,11.73
2023-05-25T10:52:30.834Z,12.40
2023-05-25T10:55:07.281Z,9.43
2023-05-25T10:57:34.990Z,19.45
2023-05-25T11:00:08.331Z,13.65
2023-05-25T11:02:56.157Z,11.00
2023-05-25T11:05:26.974Z,12.63
2023-05-25T11:07:56.639Z,14.85
2023-05-25T11:10:49.949Z,15.18
2023-05-25T11:13:40.851Z,11.57
2023-05-25T11:16:17.972Z,14.00
2023-05-25T11:18:51.663Z,9.27
2023-05-25T11:21:29.070Z,9.63
2023-05-25T11:24:06.797Z,12.38
2023-05-25T11:26:35.678Z,13.23
2023-05-25T11:29:16.378Z,8.70
2023-05-25T11:31:44.107Z,8.82
2023-05-25T11:34:12.530Z,12.45
2023-05-25T11:36:41.454Z,12.55
2023-05-25T11:39:17.125Z,11.25
2023-05-25T11:41:56.177Z,13.48
2023-05-25T11:44:31.866Z,11.95
2023-05-25T11:47:14.530Z,11.40
2023-05-25T11:49:46.258Z,10.18
2023-05-25T11:52:18.852Z,12.48
2023-05-25T11:54:46.766Z,8.00
2023-05-25T11:57:24.797Z,9.70
2023-05-25T11:59:58.186Z,12.23
2023-05-25T12:02:26.697Z,12.07
2023-05-25T12:05:02.102Z,10.38
2023-05-25T12:07:31.993Z,13.50
2023-05-25T12:10:13.981Z,12.40
2023-05-25T12:12:47.177Z,12.48
2023-05-25T12:15:25.314Z,11.77
2023-05-25T12:17:54.475Z,7.53
2023-05-25T12:20:22.502Z,9.00
2023-05-25T12:22:50.190Z,14.18
2023-05-25T12:25:24.635Z,9.20
2023-05-25T12:28:12.146Z,12.27
2023-05-25T12:30:39.908Z,12.00
2023-05-25T12:33:07.821Z,8.73
2023-05-25T12:35:49.945Z,9.40
2023-05-25T12:38:19.049Z,9.60
2023-05-25T12:40:46.891Z,6.88
2023-05-25T12:43:17.036Z,10.23
2023-05-25T12:45:45.016Z,14.23
2023-05-25T12:48:12.837Z,8.32
2023-05-25T12:50:57.198Z,5.78
2023-05-25T12:53:25.464Z,12.07
2023-05-25T12:56:05.147Z,8.15
2023-05-25T12:58:32.647Z,12.35
2023-05-25T13:01:00.203Z,12.27
2023-05-25T13:03:27.914Z,11.20
2023-05-25T13:06:01.002Z,10.05
2023-05-25T13:08:29.247Z,10.27
2023-05-25T13:10:56.850Z,8.30
2023-05-25T13:13:24.389Z,8.23
2023-05-25T13:15:51.857Z,8.73
2023-05-25T13:18:19.494Z,8.38
2023-05-25T13:20:50.037Z,9.10
2023-05-25T13:23:18.665Z,14.10
2023-05-25T13:25:47.087Z,9.55
2023-05-25T13:28:14.613Z,9.10
2023-05-25T13:30:43.113Z,13.13
2023-05-25T13:33:11.073Z,10.60
2023-05-25T13:35:45.974Z,12.05
2023-05-25T13:38:15.704Z,19.85
2023-05-25T13:40:45.607Z,11.50
2023-05-25T13:43:13.435Z,11.02
2023-05-25T13:45:41.101Z,11.05
2023-05-25T13:48:09.096Z,15.80
2023-05-25T13:50:36.634Z,11.68
2023-05-25T13:53:04.029Z,9.43
2023-05-25T13:55:31.598Z,11.30
2023-05-25T13:57:59.182Z,16.02
2023-05-25T14:00:26.838Z,7.50
2023-05-25T14:02:54.379Z,9.85
2023-05-25T14:05:22.084Z,9.02
2023-05-25T14:07:50.100Z,10.43
2023-05-25T14:10:18.596Z,11.10
2023-05-25T14:12:46.210Z,9.38
2023-05-25T14:15:13.775Z,10.80
2023-05-25T14:17:41.367Z,15.93
2023-05-25T14:20:09.829Z,12.50
2023-05-25T14:22:37.335Z,10.43
2023-05-25T14:25:05.290Z,16.13
2023-05-25T14:27:32.723Z,16.77
2023-05-25T14:30:00.269Z,6.43
2023-05-25T14:32:27.763Z,9.07
2023-05-25T14:34:55.315Z,10.15
2023-05-25T14:37:22.763Z,8.95
2023-05-25T14:39:50.433Z,6.90
2023-05-25T14:42:17.889Z,12.35
2023-05-25T14:44:45.554Z,6.95
2023-05-25T14:47:13.086Z,13.77
2023-05-25T14:49:40.717Z,10.85
2023-05-25T14:52:08.252Z,14.35
2023-05-25T14:54:36.135Z,6.55
2023-05-25T14:57:03.688Z,8.98
2023-05-25T14:59:31.124Z,6.65
2023-05-25T15:01:58.569Z,8.15
2023-05-25T15:04:27.256Z,5.25
2023-05-25T15:06:54.891Z,9.35
2023-05-25T15:09:22.468Z,8.93
2023-05-25T15:11:49.891Z,8.20
2023-05-25T15:14:17.505Z,10.30
2023-05-25T15:16:45.198Z,6.63
2023-05-25T15:19:14.522Z,10.15
2023-05-25T15:21:44.402Z,9.07
2023-05-25T15:24:16.607Z,11.77
2023-05-25T15:26:44.242Z,13.02
2023-05-25T15:29:11.685Z,10.38
2023-05-25T15:31:39.188Z,9.25
2023-05-25T15:34:06.660Z,7.70
2023-05-25T15:36:34.327Z,11.13
2023-05-25T15:39:01.798Z,14.38
2023-05-25T15:41:29.374Z,11.90
2023-05-25T15:44:02.843Z,11.20
2023-05-25T15:46:30.344Z,7.30
2023-05-25T15:48:57.937Z,9.48
2023-05-25T15:51:25.429Z,9.93
2023-05-25T15:53:54.891Z,11.32
2023-05-25T15:56:23.109Z,13.68
2023-05-25T15:58:50.636Z,8.73
2023-05-25T16:01:18.282Z,13.82
2023-05-25T16:03:45.823Z,9.70
2023-05-25T16:06:13.359Z,8.02
2023-05-25T16:08:40.821Z,5.70
2023-05-25T16:11:08.603Z,17.38
2023-05-25T16:13:36.237Z,9.93
2023-05-25T16:16:03.929Z,8.13
2023-05-25T16:18:31.521Z,10.18
2023-05-25T16:20:59.029Z,11.90
2023-05-25T16:23:26.901Z,9.38
2023-05-25T16:25:54.573Z,11.32
2023-05-25T16:28:22.093Z,12.85
2023-05-25T16:30:49.664Z,8.95
2023-05-25T16:33:17.282Z,15.10
2023-05-25T16:35:45.283Z,10.55
2023-05-25T16:38:12.954Z,11.38
2023-05-25T16:40:40.514Z,10.73
2023-05-25T16:43:08.054Z,7.82
2023-05-25T16:45:35.629Z,15.35
2023-05-25T16:48:03.456Z,8.00
2023-05-25T16:50:30.937Z,11.25
2023-05-25T16:52:58.410Z,9.02
2023-05-25T16:55:26.216Z,13.88
2023-05-25T16:57:53.728Z,11.75
2023-05-25T17:00:21.697Z,13.45
2023-05-25T17:02:49.231Z,8.90
2023-05-25T17:05:16.999Z,10.43
2023-05-25T17:07:44.696Z,12.57
2023-05-25T17:10:12.473Z,9.95
2023-05-25T17:12:40.028Z,14.43
2023-05-25T17:15:08.196Z,9.75
2023-05-25T17:17:35.622Z,13.07
2023-05-25T17:20:04.233Z,9.95
2023-05-25T17:22:31.777Z,9.50
2023-05-25T17:24:59.721Z,11.07
2023-05-25T17:27:27.189Z,14.23
2023-05-25T17:29:54.973Z,10.98
2023-05-25T17:32:22.549Z,10.63
2023-05-25T17:34:50.106Z,12.05
2023-05-25T17:37:19.012Z,10.98
2023-05-25T17:39:46.736Z,14.98
2023-05-25T17:42:14.366Z,11.02
2023-05-25T17:44:42.625Z,12.65
2023-05-25T17:47:11.251Z,11.45
2023-05-25T17:49:38.992Z,11.38
2023-05-25T17:52:07.665Z,15.80
2023-05-25T17:54:35.691Z,17.58
2023-05-25T17:57:03.633Z,15.18
2023-05-25T17:59:31.272Z,11.65
2023-05-25T18:01:58.807Z,16.85
2023-05-25T18:04:26.575Z,14.00
2023-05-25T18:06:54.222Z,13.20
2023-05-25T18:09:21.784Z,18.20
2023-05-25T18:11:49.409Z,11.93
2023-05-25T18:14:16.918Z,13.90
2023-05-25T18:16:45.012Z,13.45
2023-05-25T18:19:14.911Z,17.73
2023-05-25T18:21:42.467Z,14.10
2023-05-25T18:24:10.598Z,13.55
2023-05-25T18:26:38.188Z,15.63
2023-05-25T18:29:05.799Z,13.40
2023-05-25T18:31:33.590Z,13.85
2023-05-25T18:34:01.876Z,15.25
2023-05-25T18:36:29.504Z,16.40
2023-05-25T18:38:57.063Z,19.55
2023-05-25T18:41:26.983Z,15.27
2023-05-25T18:43:54.913Z,12.68
2023-05-25T18:46:23.420Z,15.32
2023-05-25T18:48:51.002Z,12.50
2023-05-25T18:51:22.905Z,17.60
2023-05-25T18:53:50.666Z,16.17
2023-05-25T18:56:18.193Z,16.65
2023-05-25T18:58:45.757Z,14.35
2023-05-25T19:01:15.581Z,15.45
2023-05-25T19:03:48.833Z,13.60
2023-05-25T19:06:16.718Z,12.60
2023-05-25T19:08:44.321Z,15.13
2023-05-25T19:11:11.881Z,12.80
2023-05-25T19:13:39.290Z,14.98
2023-05-25T19:16:06.990Z,10.80
2023-05-25T19:18:34.590Z,18.27
2023-05-25T19:21:02.469Z,13.23
2023-05-25T19:23:29.920Z,14.52
2023-05-25T19:25:57.741Z,15.63
2023-05-25T19:28:25.327Z,13.75
2023-05-25T19:30:53.114Z,17.52
2023-05-25T19:33:20.634Z,14.50
2023-05-25T19:35:48.356Z,15.90
2023-05-25T19:38:15.935Z,14.70
2023-05-25T19:40:43.895Z,12.32
2023-05-25T19:43:11.625Z,12.88
2023-05-25T19:45:39.285Z,14.13
2023-05-25T19:48:06.822Z,10.05
2023-05-25T19:50:34.781Z,19.85
2023-05-25T19:53:03.091Z,12.60
2023-05-25T19:55:31.048Z,15.18
2023-05-25T19:57:58.504Z,12.15
2023-05-25T20:00:27.207Z,19.95
2023-05-25T20:02:55.161Z,13.63
2023-05-25T20:05:23.050Z,15.70
2023-05-25T20:07:52.324Z,14.95
2023-05-25T20:10:20.223Z,14.82
2023-05-25T20:12:47.784Z,13.80
2023-05-25T20:15:15.935Z,14.00
2023-05-25T20:17:43.505Z,14.13
2023-05-25T20:20:11.415Z,18.45
2023-05-25T20:22:41.094Z,11.75
2023-05-25T20:25:17.436Z,13.90
2023-05-25T20:27:44.948Z,13.05
2023-05-25T20:30:13.864Z,15.48
2023-05-25T20:32:43.695Z,13.65
2023-05-25T20:35:13.123Z,11.75
2023-05-25T20:37:41.952Z,14.10
2023-05-25T20:40:09.897Z,12.75
2023-05-25T20:42:37.703Z,13.35
2023-05-25T20:45:05.628Z,13.70
2023-05-25T20:47:33.160Z,13.75
2023-05-25T20:50:00.650Z,16.95
2023-05-25T20:52:28.468Z,13.45
2023-05-25T20:54:56.158Z,13.15
2023-05-25T20:57:23.768Z,13.27
2023-05-25T20:59:51.779Z,14.68
2023-05-25T21:02:19.317Z,20.73
2023-05-25T21:04:46.799Z,16.80
2023-05-25T21:07:14.414Z,17.77
2023-05-25T21:09:41.901Z,17.30
2023-05-25T21:12:09.332Z,11.07
2023-05-25T21:14:36.892Z,15.02
2023-05-25T21:17:04.595Z,15.18
2023-05-25T21:19:32.182Z,15.60
2023-05-25T21:22:00.364Z,15.48
2023-05-25T21:24:27.828Z,13.73
2023-05-25T21:26:55.630Z,18.67
2023-05-25T21:29:23.058Z,15.38
2023-05-25T21:31:50.712Z,15.52
2023-05-25T21:34:18.254Z,15.32
2023-05-25T21:36:45.829Z,12.88
2023-05-25T21:39:13.436Z,14.40
2023-05-25T21:41:41.515Z,13.48
2023-05-25T21:44:08.942Z,12.07
2023-05-25T21:46:37.827Z,11.38
2023-05-25T21:49:05.356Z,15.93
2023-05-25T21:51:33.148Z,18.95
2023-05-25T21:54:00.701Z,16.67
2023-05-25T21:56:28.253Z,15.40
2023-05-25T21:58:55.752Z,15.27
2023-05-25T22:01:23.955Z,12.93
2023-05-25T22:03:51.694Z,13.98
2023-05-25T22:06:19.294Z,13.77
2023-05-25T22:08:46.952Z,17.15
2023-05-25T22:11:14.516Z,11.50
2023-05-25T22:13:41.917Z,15.30
2023-05-25T22:16:09.564Z,15.63
2023-05-25T22:18:38.521Z,18.25
2023-05-25T22:21:06.396Z,15.45
2023-05-25T22:23:33.819Z,17.33
2023-05-25T22:26:01.371Z,16.55
2023-05-25T22:28:28.835Z,17.67
2023-05-25T22:30:56.656Z,17.92
2023-05-25T22:33:24.087Z,18.70
2023-05-25T22:35:52.305Z,20.63
2023-05-25T22:38:19.796Z,15.15
2023-05-25T22:40:47.866Z,17.00
2023-05-25T22:43:15.508Z,15.13
2023-05-25T22:45:43.085Z,16.73
2023-05-25T22:48:12.775Z,21.13
2023-05-25T22:50:40.630Z,17.27
2023-05-25T22:53:08.096Z,17.58
2023-05-25T22:55:35.632Z,18.52
2023-05-25T22:58:03.118Z,15.55
2023-05-25T23:00:30.769Z,19.38
2023-05-25T23:02:59.058Z,17.65
2023-05-25T23:05:27.265Z,22.70
2023-05-25T23:07:54.670Z,20.75
2023-05-25T23:10:22.138Z,17.80
2023-05-25T23:12:50.460Z,16.92
2023-05-25T23:15:18.697Z,19.23
2023-05-25T23:17:46.257Z,18.90
2023-05-25T23:20:14.057Z,16.80
2023-05-25T23:22:42.921Z,17.92
2023-05-25T23:25:10.686Z,19.67
2023-05-25T23:27:38.171Z,17.17
2023-05-25T23:30:08.959Z,17.40
2023-05-25T23:32:36.878Z,16.77
2023-05-25T23:35:04.614Z,22.08
2023-05-25T23:37:32.189Z,18.38
2023-05-25T23:39:59.582Z,23.00
2023-05-25T23:42:37.248Z,16.85
2023-05-25T23:45:05.352Z,20.80
2023-05-25T23:47:32.821Z,18.45
2023-05-25T23:50:00.630Z,16.58
2023-05-25T23:52:28.124Z,22.13
2023-05-25T23:54:55.952Z,22.10
2023-05-25T23:57:23.765Z,17.00
2023-05-25T23:59:51.486Z,18.67
